sensor_id;sensor_type;location;lat;lon;timestamp;pressure;altitude;pressure_sealevel;temperature;humidity
12799;BME280;19250;42.646;26.980;2022-09-03T00:00:50;98623.75;;;23.80;100.00
12799;BME280;19250;42.646;26.980;2022-09-03T00:03:23;98626.97;;;23.56;100.00
12799;BME280;19250;42.646;26.980;2022-09-03T00:06:02;98628.16;;;23.26;100.00
12799;BME280;19250;42.646;26.980;2022-09-03T00:08:38;98612.81;;;23.20;100.00
12799;BME280;19250;42.646;26.980;2022-09-03T00:11:13;98620.28;;;23.63;100.00
12799;BME280;19250;42.646;26.980;2022-09-03T00:13:48;98614.16;;;23.56;100.00
12799;BME280;19250;42.646;26.980;2022-09-03T00:16:17;98610.91;;;22.88;100.00
12799;BME280;19250;42.646;26.980;2022-09-03T00:18:49;98618.25;;;23.04;100.00
12799;BME280;19250;42.646;26.980;2022-09-03T00:21:26;98609.03;;;23.05;100.00
12799;BME280;19250;42.646;26.980;2022-09-03T00:23:59;98605.94;;;23.35;100.00
12799;BME280;19250;42.646;26.980;2022-09-03T00:26:33;98616.59;;;23.36;100.00
12799;BME280;19250;42.646;26.980;2022-09-03T00:29:06;98613.47;;;23.11;100.00
12799;BME280;19250;42.646;26.980;2022-09-03T00:31:39;98604.59;;;22.54;100.00
12799;BME280;19250;42.646;26.980;2022-09-03T00:34:12;98594.63;;;22.43;100.00
12799;BME280;19250;42.646;26.980;2022-09-03T00:36:43;98597.25;;;22.83;100.00
12799;BME280;19250;42.646;26.980;2022-09-03T00:39:14;98600.28;;;23.03;100.00
12799;BME280;19250;42.646;26.980;2022-09-03T00:41:51;98607.38;;;23.04;100.00
12799;BME280;19250;42.646;26.980;2022-09-03T00:44:47;98618.31;;;23.09;100.00
12799;BME280;19250;42.646;26.980;2022-09-03T00:47:25;98630.00;;;23.59;100.00
12799;BME280;19250;42.646;26.980;2022-09-03T00:50:02;98631.34;;;23.78;100.00
12799;BME280;19250;42.646;26.980;2022-09-03T00:52:40;98632.31;;;24.11;100.00
12799;BME280;19250;42.646;26.980;2022-09-03T00:55:21;98630.75;;;24.15;100.00
12799;BME280;19250;42.646;26.980;2022-09-03T00:58:02;98627.03;;;23.82;100.00
12799;BME280;19250;42.646;26.980;2022-09-03T01:00:34;98633.81;;;24.02;100.00
12799;BME280;19250;42.646;26.980;2022-09-03T01:03:06;98642.19;;;23.95;100.00
12799;BME280;19250;42.646;26.980;2022-09-03T01:05:56;98642.38;;;24.10;100.00
12799;BME280;19250;42.646;26.980;2022-09-03T01:08:36;98655.97;;;24.27;100.00
12799;BME280;19250;42.646;26.980;2022-09-03T01:11:15;98655.75;;;23.90;100.00
12799;BME280;19250;42.646;26.980;2022-09-03T01:13:55;98655.50;;;23.53;100.00
12799;BME280;19250;42.646;26.980;2022-09-03T01:16:33;98660.22;;;23.79;100.00
12799;BME280;19250;42.646;26.980;2022-09-03T01:19:12;98661.72;;;23.70;100.00
12799;BME280;19250;42.646;26.980;2022-09-03T01:22:08;98662.56;;;23.93;100.00
12799;BME280;19250;42.646;26.980;2022-09-03T01:25:11;98669.94;;;24.35;100.00
12799;BME280;19250;42.646;26.980;2022-09-03T01:28:01;98674.16;;;24.21;100.00
12799;BME280;19250;42.646;26.980;2022-09-03T01:30:30;98675.91;;;24.32;100.00
12799;BME280;19250;42.646;26.980;2022-09-03T01:33:07;98674.34;;;24.15;100.00
12799;BME280;19250;42.646;26.980;2022-09-03T01:35:44;98682.69;;;24.30;100.00
12799;BME280;19250;42.646;26.980;2022-09-03T01:38:19;98679.88;;;24.25;100.00
12799;BME280;19250;42.646;26.980;2022-09-03T01:40:58;98681.88;;;24.29;100.00
12799;BME280;19250;42.646;26.980;2022-09-03T01:43:55;98673.81;;;24.40;100.00
12799;BME280;19250;42.646;26.980;2022-09-03T01:46:33;98664.09;;;24.49;100.00
12799;BME280;19250;42.646;26.980;2022-09-03T01:49:06;98666.00;;;24.48;100.00
12799;BME280;19250;42.646;26.980;2022-09-03T01:51:37;98669.56;;;24.49;100.00
12799;BME280;19250;42.646;26.980;2022-09-03T01:54:19;98674.03;;;24.60;100.00
12799;BME280;19250;42.646;26.980;2022-09-03T01:57:15;98666.13;;;24.58;100.00
12799;BME280;19250;42.646;26.980;2022-09-03T01:59:55;98668.09;;;24.68;100.00
12799;BME280;19250;42.646;26.980;2022-09-03T02:02:27;98666.16;;;24.63;100.00
12799;BME280;19250;42.646;26.980;2022-09-03T02:04:58;98670.66;;;24.53;100.00
12799;BME280;19250;42.646;26.980;2022-09-03T02:07:29;98668.78;;;24.53;100.00
12799;BME280;19250;42.646;26.980;2022-09-03T02:09:58;98665.97;;;24.43;100.00
12799;BME280;19250;42.646;26.980;2022-09-03T02:12:28;98664.84;;;24.44;100.00
12799;BME280;19250;42.646;26.980;2022-09-03T02:15:01;98668.06;;;24.36;100.00
12799;BME280;19250;42.646;26.980;2022-09-03T02:17:30;98669.56;;;24.05;100.00
12799;BME280;19250;42.646;26.980;2022-09-03T02:19:58;98669.28;;;24.07;100.00
12799;BME280;19250;42.646;26.980;2022-09-03T02:22:29;98668.72;;;24.05;100.00
12799;BME280;19250;42.646;26.980;2022-09-03T02:24:56;98665.75;;;23.84;100.00
12799;BME280;19250;42.646;26.980;2022-09-03T02:27:24;98602.84;;;22.93;100.00
12799;BME280;19250;42.646;26.980;2022-09-03T02:29:51;98668.78;;;23.33;100.00
12799;BME280;19250;42.646;26.980;2022-09-03T02:32:20;98667.91;;;23.44;100.00
12799;BME280;19250;42.646;26.980;2022-09-03T02:34:47;98665.41;;;23.26;100.00
12799;BME280;19250;42.646;26.980;2022-09-03T02:37:15;98663.81;;;23.63;100.00
12799;BME280;19250;42.646;26.980;2022-09-03T02:39:43;98658.78;;;23.72;100.00
12799;BME280;19250;42.646;26.980;2022-09-03T02:42:12;98651.34;;;23.67;100.00
12799;BME280;19250;42.646;26.980;2022-09-03T02:44:42;98644.63;;;23.53;100.00
12799;BME280;19250;42.646;26.980;2022-09-03T02:47:12;98643.78;;;23.53;100.00
12799;BME280;19250;42.646;26.980;2022-09-03T02:49:41;98634.38;;;23.60;100.00
12799;BME280;19250;42.646;26.980;2022-09-03T02:52:09;98626.75;;;23.41;100.00
12799;BME280;19250;42.646;26.980;2022-09-03T02:54:37;98605.81;;;23.41;100.00
12799;BME280;19250;42.646;26.980;2022-09-03T02:57:06;98620.31;;;23.68;100.00
12799;BME280;19250;42.646;26.980;2022-09-03T02:59:34;98630.56;;;23.61;100.00
12799;BME280;19250;42.646;26.980;2022-09-03T03:02:01;98639.34;;;23.85;100.00
12799;BME280;19250;42.646;26.980;2022-09-03T03:04:29;98634.63;;;23.80;100.00
12799;BME280;19250;42.646;26.980;2022-09-03T03:06:58;98649.31;;;23.79;100.00
12799;BME280;19250;42.646;26.980;2022-09-03T03:09:26;98646.88;;;23.78;100.00
12799;BME280;19250;42.646;26.980;2022-09-03T03:11:53;98646.28;;;23.98;100.00
12799;BME280;19250;42.646;26.980;2022-09-03T03:14:21;98654.47;;;23.98;100.00
12799;BME280;19250;42.646;26.980;2022-09-03T03:16:49;98659.13;;;23.97;100.00
12799;BME280;19250;42.646;26.980;2022-09-03T03:19:17;98664.72;;;23.52;100.00
12799;BME280;19250;42.646;26.980;2022-09-03T03:21:44;98666.56;;;23.63;100.00
12799;BME280;19250;42.646;26.980;2022-09-03T03:24:13;98666.34;;;23.70;100.00
12799;BME280;19250;42.646;26.980;2022-09-03T03:26:40;98671.84;;;23.53;100.00
12799;BME280;19250;42.646;26.980;2022-09-03T03:29:13;98669.50;;;23.12;100.00
12799;BME280;19250;42.646;26.980;2022-09-03T03:31:40;98672.56;;;23.32;100.00
12799;BME280;19250;42.646;26.980;2022-09-03T03:34:08;98677.94;;;23.27;100.00
12799;BME280;19250;42.646;26.980;2022-09-03T03:36:35;98675.63;;;23.02;100.00
12799;BME280;19250;42.646;26.980;2022-09-03T03:39:03;98678.16;;;23.09;100.00
12799;BME280;19250;42.646;26.980;2022-09-03T03:41:33;98682.69;;;23.03;100.00
12799;BME280;19250;42.646;26.980;2022-09-03T03:47:22;98685.34;;;23.31;100.00
12799;BME280;19250;42.646;26.980;2022-09-03T03:49:49;98687.25;;;23.31;100.00
12799;BME280;19250;42.646;26.980;2022-09-03T03:52:17;98690.63;;;23.38;100.00
12799;BME280;19250;42.646;26.980;2022-09-03T03:54:44;98686.88;;;23.39;100.00
12799;BME280;19250;42.646;26.980;2022-09-03T03:57:13;98683.78;;;23.52;100.00
12799;BME280;19250;42.646;26.980;2022-09-03T03:59:41;98687.81;;;23.66;100.00
12799;BME280;19250;42.646;26.980;2022-09-03T04:02:08;98680.88;;;23.75;100.00
12799;BME280;19250;42.646;26.980;2022-09-03T04:04:35;98686.88;;;23.77;100.00
12799;BME280;19250;42.646;26.980;2022-09-03T04:07:03;98686.06;;;23.77;100.00
12799;BME280;19250;42.646;26.980;2022-09-03T04:09:30;98685.88;;;23.83;100.00
12799;BME280;19250;42.646;26.980;2022-09-03T04:11:57;98690.25;;;23.84;100.00
12799;BME280;19250;42.646;26.980;2022-09-03T04:14:26;98692.38;;;23.82;100.00
12799;BME280;19250;42.646;26.980;2022-09-03T04:16:53;98687.28;;;24.08;100.00
12799;BME280;19250;42.646;26.980;2022-09-03T04:19:21;98686.22;;;24.09;100.00
12799;BME280;19250;42.646;26.980;2022-09-03T04:21:48;98693.81;;;24.07;100.00
12799;BME280;19250;42.646;26.980;2022-09-03T04:24:16;98705.22;;;24.04;100.00
12799;BME280;19250;42.646;26.980;2022-09-03T04:26:43;98713.31;;;24.15;100.00
12799;BME280;19250;42.646;26.980;2022-09-03T04:29:11;98712.06;;;24.06;100.00
12799;BME280;19250;42.646;26.980;2022-09-03T04:31:40;98716.19;;;24.09;100.00
12799;BME280;19250;42.646;26.980;2022-09-03T04:34:27;98717.63;;;24.11;100.00
12799;BME280;19250;42.646;26.980;2022-09-03T04:36:55;98718.50;;;24.17;100.00
12799;BME280;19250;42.646;26.980;2022-09-03T04:39:24;98723.75;;;24.45;100.00
12799;BME280;19250;42.646;26.980;2022-09-03T04:41:51;98732.25;;;24.27;100.00
12799;BME280;19250;42.646;26.980;2022-09-03T04:44:18;98740.75;;;24.52;100.00
12799;BME280;19250;42.646;26.980;2022-09-03T04:46:47;98735.03;;;24.32;100.00
12799;BME280;19250;42.646;26.980;2022-09-03T04:49:15;98741.88;;;24.34;100.00
12799;BME280;19250;42.646;26.980;2022-09-03T04:51:42;98752.22;;;24.32;100.00
12799;BME280;19250;42.646;26.980;2022-09-03T04:54:09;98740.94;;;24.24;100.00
12799;BME280;19250;42.646;26.980;2022-09-03T04:56:38;98747.41;;;24.18;100.00
12799;BME280;19250;42.646;26.980;2022-09-03T04:59:07;98746.31;;;24.19;100.00
12799;BME280;19250;42.646;26.980;2022-09-03T05:01:36;98753.28;;;24.53;100.00
12799;BME280;19250;42.646;26.980;2022-09-03T05:04:06;98754.13;;;24.54;100.00
12799;BME280;19250;42.646;26.980;2022-09-03T05:06:35;98721.25;;;24.00;100.00
12799;BME280;19250;42.646;26.980;2022-09-03T05:09:03;98766.56;;;24.45;100.00
12799;BME280;19250;42.646;26.980;2022-09-03T05:11:31;98766.38;;;24.51;100.00
12799;BME280;19250;42.646;26.980;2022-09-03T05:13:59;98752.91;;;24.45;100.00
12799;BME280;19250;42.646;26.980;2022-09-03T05:16:28;98773.16;;;24.49;100.00
12799;BME280;19250;42.646;26.980;2022-09-03T05:18:57;98774.59;;;24.56;100.00
12799;BME280;19250;42.646;26.980;2022-09-03T05:21:27;98776.13;;;24.47;100.00
12799;BME280;19250;42.646;26.980;2022-09-03T05:23:55;98777.03;;;24.31;100.00
12799;BME280;19250;42.646;26.980;2022-09-03T05:26:24;98782.59;;;24.41;100.00
12799;BME280;19250;42.646;26.980;2022-09-03T05:28:53;98778.28;;;24.45;100.00
12799;BME280;19250;42.646;26.980;2022-09-03T05:31:23;98776.88;;;24.64;100.00
12799;BME280;19250;42.646;26.980;2022-09-03T05:33:54;98774.25;;;24.74;100.00
12799;BME280;19250;42.646;26.980;2022-09-03T05:36:24;98778.19;;;25.05;100.00
12799;BME280;19250;42.646;26.980;2022-09-03T05:38:53;98780.16;;;25.10;100.00
12799;BME280;19250;42.646;26.980;2022-09-03T05:41:21;98779.88;;;25.11;100.00
12799;BME280;19250;42.646;26.980;2022-09-03T05:43:49;98784.63;;;24.94;100.00
12799;BME280;19250;42.646;26.980;2022-09-03T05:46:21;98780.38;;;24.81;100.00
12799;BME280;19250;42.646;26.980;2022-09-03T05:48:51;98779.16;;;24.72;100.00
12799;BME280;19250;42.646;26.980;2022-09-03T05:51:18;98773.84;;;24.82;100.00
12799;BME280;19250;42.646;26.980;2022-09-03T05:53:46;98781.88;;;25.21;100.00
12799;BME280;19250;42.646;26.980;2022-09-03T05:56:18;98785.16;;;25.81;100.00
12799;BME280;19250;42.646;26.980;2022-09-03T05:58:46;98790.25;;;26.05;100.00
12799;BME280;19250;42.646;26.980;2022-09-03T06:01:16;98796.81;;;26.09;100.00
12799;BME280;19250;42.646;26.980;2022-09-03T06:03:45;98805.06;;;26.14;100.00
12799;BME280;19250;42.646;26.980;2022-09-03T06:06:13;98782.50;;;26.28;100.00
12799;BME280;19250;42.646;26.980;2022-09-03T06:08:41;98812.88;;;26.84;100.00
12799;BME280;19250;42.646;26.980;2022-09-03T06:11:10;98804.47;;;27.21;100.00
12799;BME280;19250;42.646;26.980;2022-09-03T06:13:39;98800.06;;;27.10;100.00
12799;BME280;19250;42.646;26.980;2022-09-03T06:16:06;98813.78;;;27.25;100.00
12799;BME280;19250;42.646;26.980;2022-09-03T06:18:34;98816.31;;;27.77;99.77
12799;BME280;19250;42.646;26.980;2022-09-03T06:21:04;98805.09;;;27.73;96.65
12799;BME280;19250;42.646;26.980;2022-09-03T06:23:32;98823.72;;;27.91;96.61
12799;BME280;19250;42.646;26.980;2022-09-03T06:26:02;98824.00;;;28.25;92.19
12799;BME280;19250;42.646;26.980;2022-09-03T06:28:29;98840.97;;;28.37;91.01
12799;BME280;19250;42.646;26.980;2022-09-03T06:30:59;98837.44;;;28.12;91.00
12799;BME280;19250;42.646;26.980;2022-09-03T06:33:27;98836.88;;;28.04;93.16
12799;BME280;19250;42.646;26.980;2022-09-03T06:35:56;98846.22;;;27.88;93.71
12799;BME280;19250;42.646;26.980;2022-09-03T06:38:25;98851.13;;;27.61;94.55
12799;BME280;19250;42.646;26.980;2022-09-03T06:40:54;98859.88;;;27.43;96.03
12799;BME280;19250;42.646;26.980;2022-09-03T06:43:23;98858.78;;;27.54;95.52
12799;BME280;19250;42.646;26.980;2022-09-03T06:45:56;98868.03;;;27.33;95.75
12799;BME280;19250;42.646;26.980;2022-09-03T06:48:25;98863.59;;;27.12;97.53
12799;BME280;19250;42.646;26.980;2022-09-03T06:50:54;98864.63;;;26.95;100.00
12799;BME280;19250;42.646;26.980;2022-09-03T06:53:23;98869.91;;;27.17;98.38
12799;BME280;19250;42.646;26.980;2022-09-03T06:55:54;98865.94;;;26.83;100.00
12799;BME280;19250;42.646;26.980;2022-09-03T06:58:22;98873.22;;;26.67;100.00
12799;BME280;19250;42.646;26.980;2022-09-03T07:00:49;98871.81;;;26.60;100.00
12799;BME280;19250;42.646;26.980;2022-09-03T07:03:18;98881.34;;;26.52;100.00
12799;BME280;19250;42.646;26.980;2022-09-03T07:05:47;98875.44;;;26.28;100.00
12799;BME280;19250;42.646;26.980;2022-09-03T07:08:14;98883.75;;;26.43;100.00
12799;BME280;19250;42.646;26.980;2022-09-03T07:10:45;98878.97;;;26.66;98.87
12799;BME280;19250;42.646;26.980;2022-09-03T07:13:13;98879.50;;;26.63;98.04
12799;BME280;19250;42.646;26.980;2022-09-03T07:15:41;98885.97;;;26.98;95.92
12799;BME280;19250;42.646;26.980;2022-09-03T07:18:08;98888.50;;;27.10;96.01
12799;BME280;19250;42.646;26.980;2022-09-03T07:20:35;98884.00;;;27.86;90.10
12799;BME280;19250;42.646;26.980;2022-09-03T07:23:04;98887.31;;;28.44;86.98
12799;BME280;19250;42.646;26.980;2022-09-03T07:25:31;98882.38;;;28.36;84.75
12799;BME280;19250;42.646;26.980;2022-09-03T07:27:58;98877.47;;;28.07;89.79
12799;BME280;19250;42.646;26.980;2022-09-03T07:30:26;98885.13;;;28.00;86.17
12799;BME280;19250;42.646;26.980;2022-09-03T07:32:53;98875.28;;;28.04;86.83
12799;BME280;19250;42.646;26.980;2022-09-03T07:35:20;98877.22;;;28.19;86.75
12799;BME280;19250;42.646;26.980;2022-09-03T07:37:50;98879.66;;;28.26;84.71
12799;BME280;19250;42.646;26.980;2022-09-03T07:40:19;98882.91;;;28.38;84.93
12799;BME280;19250;42.646;26.980;2022-09-03T07:42:46;98883.47;;;28.65;83.50
12799;BME280;19250;42.646;26.980;2022-09-03T07:45:14;98886.19;;;28.70;81.61
12799;BME280;19250;42.646;26.980;2022-09-03T07:47:47;98887.84;;;28.51;84.44
12799;BME280;19250;42.646;26.980;2022-09-03T07:50:15;98884.69;;;29.03;80.50
12799;BME280;19250;42.646;26.980;2022-09-03T07:52:43;98888.22;;;29.08;78.81
12799;BME280;19250;42.646;26.980;2022-09-03T07:55:10;98883.72;;;29.38;75.19
12799;BME280;19250;42.646;26.980;2022-09-03T07:57:39;98889.13;;;29.53;74.95
12799;BME280;19250;42.646;26.980;2022-09-03T08:00:08;98883.91;;;29.95;71.03
12799;BME280;19250;42.646;26.980;2022-09-03T08:02:37;98883.72;;;29.87;71.86
12799;BME280;19250;42.646;26.980;2022-09-03T08:05:05;98880.75;;;30.12;68.84
12799;BME280;19250;42.646;26.980;2022-09-03T08:07:33;98874.94;;;30.47;68.00
12799;BME280;19250;42.646;26.980;2022-09-03T08:10:00;98875.38;;;30.26;67.19
12799;BME280;19250;42.646;26.980;2022-09-03T08:12:30;98873.41;;;30.60;65.48
12799;BME280;19250;42.646;26.980;2022-09-03T08:14:58;98867.84;;;30.65;64.96
12799;BME280;19250;42.646;26.980;2022-09-03T08:17:27;98861.66;;;30.78;62.87
12799;BME280;19250;42.646;26.980;2022-09-03T08:19:54;98854.88;;;30.89;61.99
12799;BME280;19250;42.646;26.980;2022-09-03T08:22:23;98853.19;;;30.93;61.82
12799;BME280;19250;42.646;26.980;2022-09-03T08:24:51;98858.59;;;30.80;63.09
12799;BME280;19250;42.646;26.980;2022-09-03T08:27:19;98861.63;;;30.26;65.36
12799;BME280;19250;42.646;26.980;2022-09-03T08:29:52;98861.09;;;30.23;66.26
12799;BME280;19250;42.646;26.980;2022-09-03T08:32:21;98852.88;;;30.76;63.83
12799;BME280;19250;42.646;26.980;2022-09-03T08:34:48;98856.03;;;30.88;62.08
12799;BME280;19250;42.646;26.980;2022-09-03T08:37:17;98849.19;;;31.28;59.22
12799;BME280;19250;42.646;26.980;2022-09-03T08:39:44;98858.16;;;31.57;56.84
12799;BME280;19250;42.646;26.980;2022-09-03T08:42:26;98858.19;;;31.34;58.18
12799;BME280;19250;42.646;26.980;2022-09-03T08:44:56;98850.56;;;31.25;56.62
12799;BME280;19250;42.646;26.980;2022-09-03T08:47:32;98851.06;;;31.51;56.64
12799;BME280;19250;42.646;26.980;2022-09-03T08:50:03;98864.09;;;31.83;54.59
12799;BME280;19250;42.646;26.980;2022-09-03T08:52:40;98868.94;;;31.54;54.63
12799;BME280;19250;42.646;26.980;2022-09-03T08:55:17;98865.00;;;31.60;53.35
12799;BME280;19250;42.646;26.980;2022-09-03T08:57:49;98858.19;;;31.34;54.73
12799;BME280;19250;42.646;26.980;2022-09-03T09:00:17;98862.47;;;31.63;54.86
12799;BME280;19250;42.646;26.980;2022-09-03T09:03:20;98871.06;;;32.13;50.71
12799;BME280;19250;42.646;26.980;2022-09-03T09:05:53;98880.41;;;32.30;51.86
12799;BME280;19250;42.646;26.980;2022-09-03T09:08:28;98877.81;;;32.20;50.60
12799;BME280;19250;42.646;26.980;2022-09-03T09:11:02;98889.91;;;32.24;50.24
12799;BME280;19250;42.646;26.980;2022-09-03T09:13:41;98902.75;;;32.15;50.70
12799;BME280;19250;42.646;26.980;2022-09-03T09:16:15;98903.53;;;32.67;48.39
12799;BME280;19250;42.646;26.980;2022-09-03T09:18:55;98902.31;;;32.86;46.40
12799;BME280;19250;42.646;26.980;2022-09-03T09:21:27;98886.75;;;33.31;46.49
12799;BME280;19250;42.646;26.980;2022-09-03T09:24:00;98900.38;;;33.77;42.84
12799;BME280;19250;42.646;26.980;2022-09-03T09:26:29;98888.22;;;32.42;47.88
12799;BME280;19250;42.646;26.980;2022-09-03T09:28:58;98895.03;;;32.91;48.20
12799;BME280;19250;42.646;26.980;2022-09-03T09:31:28;98892.53;;;33.08;45.66
12799;BME280;19250;42.646;26.980;2022-09-03T09:34:02;98904.06;;;33.23;45.00
12799;BME280;19250;42.646;26.980;2022-09-03T09:36:35;98901.47;;;33.90;42.26
12799;BME280;19250;42.646;26.980;2022-09-03T09:39:07;98905.66;;;32.70;46.66
12799;BME280;19250;42.646;26.980;2022-09-03T09:41:35;98904.66;;;32.66;47.12
12799;BME280;19250;42.646;26.980;2022-09-03T09:44:04;98893.09;;;33.18;45.31
12799;BME280;19250;42.646;26.980;2022-09-03T09:46:35;98902.22;;;33.19;45.52
12799;BME280;19250;42.646;26.980;2022-09-03T09:49:28;98914.59;;;34.20;40.65
12799;BME280;19250;42.646;26.980;2022-09-03T09:52:05;98914.44;;;34.25;40.07
12799;BME280;19250;42.646;26.980;2022-09-03T09:54:34;98910.84;;;35.09;39.03
12799;BME280;19250;42.646;26.980;2022-09-03T09:57:03;98928.28;;;35.57;36.76
12799;BME280;19250;42.646;26.980;2022-09-03T09:59:32;98927.50;;;35.91;35.64
12799;BME280;19250;42.646;26.980;2022-09-03T10:02:08;98924.91;;;35.12;36.71
12799;BME280;19250;42.646;26.980;2022-09-03T10:04:38;98928.81;;;35.76;36.11
12799;BME280;19250;42.646;26.980;2022-09-03T10:07:20;98915.03;;;35.37;35.72
12799;BME280;19250;42.646;26.980;2022-09-03T10:09:58;98926.03;;;35.59;35.38
12799;BME280;19250;42.646;26.980;2022-09-03T10:12:30;98916.63;;;34.90;36.41
12799;BME280;19250;42.646;26.980;2022-09-03T10:15:11;98926.88;;;33.70;40.42
12799;BME280;19250;42.646;26.980;2022-09-03T10:17:54;98912.38;;;34.09;39.85
12799;BME280;19250;42.646;26.980;2022-09-03T10:20:30;98938.16;;;34.62;38.03
12799;BME280;19250;42.646;26.980;2022-09-03T10:23:08;98932.06;;;34.74;37.06
12799;BME280;19250;42.646;26.980;2022-09-03T10:25:46;98940.25;;;34.87;37.30
12799;BME280;19250;42.646;26.980;2022-09-03T10:28:21;98947.34;;;35.02;36.92
12799;BME280;19250;42.646;26.980;2022-09-03T10:31:09;98941.00;;;34.71;36.75
12799;BME280;19250;42.646;26.980;2022-09-03T10:33:45;98940.44;;;35.30;36.09
12799;BME280;19250;42.646;26.980;2022-09-03T10:36:18;98943.59;;;34.98;36.17
12799;BME280;19250;42.646;26.980;2022-09-03T10:38:52;98940.22;;;33.27;40.92
12799;BME280;19250;42.646;26.980;2022-09-03T10:41:33;98934.03;;;34.29;38.17
12799;BME280;19250;42.646;26.980;2022-09-03T10:44:17;98927.25;;;33.99;37.71
12799;BME280;19250;42.646;26.980;2022-09-03T10:46:59;98939.66;;;34.15;38.88
12799;BME280;19250;42.646;26.980;2022-09-03T10:49:38;98933.16;;;34.42;38.03
12799;BME280;19250;42.646;26.980;2022-09-03T10:52:15;98939.84;;;34.19;38.48
12799;BME280;19250;42.646;26.980;2022-09-03T10:54:54;98947.56;;;34.30;36.87
12799;BME280;19250;42.646;26.980;2022-09-03T10:57:34;98942.69;;;35.85;34.86
12799;BME280;19250;42.646;26.980;2022-09-03T11:00:07;98951.53;;;36.38;33.50
12799;BME280;19250;42.646;26.980;2022-09-03T11:02:58;98947.56;;;36.74;32.34
12799;BME280;19250;42.646;26.980;2022-09-03T11:05:37;98945.16;;;35.78;33.65
12799;BME280;19250;42.646;26.980;2022-09-03T11:08:13;98954.16;;;36.09;33.21
12799;BME280;19250;42.646;26.980;2022-09-03T11:10:45;98953.84;;;36.11;33.22
12799;BME280;19250;42.646;26.980;2022-09-03T11:13:19;98906.56;;;35.03;34.88
12799;BME280;19250;42.646;26.980;2022-09-03T11:15:51;98945.19;;;35.30;34.71
12799;BME280;19250;42.646;26.980;2022-09-03T11:18:22;98949.91;;;35.29;34.39
12799;BME280;19250;42.646;26.980;2022-09-03T11:20:53;98928.81;;;35.76;33.57
12799;BME280;19250;42.646;26.980;2022-09-03T11:23:30;98952.50;;;36.42;33.01
12799;BME280;19250;42.646;26.980;2022-09-03T11:26:04;98964.09;;;36.62;31.85
12799;BME280;19250;42.646;26.980;2022-09-03T11:28:39;98946.81;;;35.22;34.31
12799;BME280;19250;42.646;26.980;2022-09-03T11:31:19;98923.00;;;34.37;35.61
12799;BME280;19250;42.646;26.980;2022-09-03T11:33:52;98959.19;;;35.81;33.68
12799;BME280;19250;42.646;26.980;2022-09-03T11:36:28;98968.03;;;36.00;32.76
12799;BME280;19250;42.646;26.980;2022-09-03T11:38:58;98969.72;;;35.53;32.90
12799;BME280;19250;42.646;26.980;2022-09-03T11:41:27;98951.03;;;36.28;32.81
12799;BME280;19250;42.646;26.980;2022-09-03T11:43:56;98976.00;;;37.64;30.43
12799;BME280;19250;42.646;26.980;2022-09-03T11:46:28;98970.25;;;36.84;31.08
12799;BME280;19250;42.646;26.980;2022-09-03T11:49:09;98965.22;;;36.78;31.33
12799;BME280;19250;42.646;26.980;2022-09-03T11:51:39;98963.97;;;36.32;31.50
12799;BME280;19250;42.646;26.980;2022-09-03T11:54:25;98968.81;;;35.67;32.98
12799;BME280;19250;42.646;26.980;2022-09-03T11:57:06;98970.19;;;36.21;32.18
12799;BME280;19250;42.646;26.980;2022-09-03T11:59:36;98970.78;;;35.92;31.84
12799;BME280;19250;42.646;26.980;2022-09-03T12:02:12;98971.47;;;36.40;31.71
12799;BME280;19250;42.646;26.980;2022-09-03T12:04:46;98949.13;;;36.11;31.42
12799;BME280;19250;42.646;26.980;2022-09-03T12:07:34;98974.03;;;35.77;32.24
12799;BME280;19250;42.646;26.980;2022-09-03T12:10:16;98978.25;;;36.86;30.65
12799;BME280;19250;42.646;26.980;2022-09-03T12:12:54;98935.34;;;35.89;31.93
12799;BME280;19250;42.646;26.980;2022-09-03T12:15:49;98970.78;;;35.75;32.10
12799;BME280;19250;42.646;26.980;2022-09-03T12:18:23;98937.06;;;35.50;31.95
12799;BME280;19250;42.646;26.980;2022-09-03T12:21:02;98978.78;;;35.85;32.03
12799;BME280;19250;42.646;26.980;2022-09-03T12:23:32;98965.06;;;35.23;32.61
12799;BME280;19250;42.646;26.980;2022-09-03T12:26:03;98972.88;;;34.60;34.07
12799;BME280;19250;42.646;26.980;2022-09-03T12:28:34;98941.53;;;35.12;32.87
12799;BME280;19250;42.646;26.980;2022-09-03T12:31:08;98941.94;;;34.66;33.51
12799;BME280;19250;42.646;26.980;2022-09-03T12:33:45;98967.75;;;35.54;32.94
12799;BME280;19250;42.646;26.980;2022-09-03T12:36:13;98972.69;;;35.66;31.91
12799;BME280;19250;42.646;26.980;2022-09-03T12:38:40;98928.94;;;35.63;31.71
12799;BME280;19250;42.646;26.980;2022-09-03T12:41:21;98985.78;;;35.65;31.87
12799;BME280;19250;42.646;26.980;2022-09-03T12:43:50;98979.78;;;35.32;32.56
12799;BME280;19250;42.646;26.980;2022-09-03T12:46:17;98988.69;;;34.59;33.94
12799;BME280;19250;42.646;26.980;2022-09-03T12:48:58;98983.75;;;34.56;34.44
12799;BME280;19250;42.646;26.980;2022-09-03T12:51:33;98988.34;;;34.83;33.13
12799;BME280;19250;42.646;26.980;2022-09-03T12:54:03;98992.44;;;34.85;33.56
12799;BME280;19250;42.646;26.980;2022-09-03T12:56:33;98982.75;;;35.05;32.95
12799;BME280;19250;42.646;26.980;2022-09-03T12:59:05;98974.09;;;35.37;32.46
12799;BME280;19250;42.646;26.980;2022-09-03T13:01:42;98986.34;;;35.45;32.69
12799;BME280;19250;42.646;26.980;2022-09-03T13:04:13;98976.56;;;34.77;32.90
12799;BME280;19250;42.646;26.980;2022-09-03T13:06:49;98958.38;;;35.81;31.79
12799;BME280;19250;42.646;26.980;2022-09-03T13:09:23;98978.16;;;36.31;31.07
12799;BME280;19250;42.646;26.980;2022-09-03T13:11:53;98984.91;;;35.56;32.31
12799;BME280;19250;42.646;26.980;2022-09-03T13:14:20;98979.06;;;35.10;32.85